createdAt,value
2022-11-22T00:00:20.024Z,10.49
2022-11-22T00:02:46.839Z,10.72
2022-11-22T00:05:13.545Z,10.70
2022-11-22T00:07:40.380Z,10.51
2022-11-22T00:10:08.993Z,9.99
2022-11-22T00:12:35.539Z,10.58
2022-11-22T00:15:01.881Z,10.33
2022-11-22T00:17:28.270Z,10.76
2022-11-22T00:19:54.644Z,10.40
2022-11-22T00:22:20.961Z,10.52
2022-11-22T00:24:47.496Z,10.64
2022-11-22T00:27:14.198Z,10.51
2022-11-22T00:29:40.563Z,10.76
2022-11-22T00:32:06.890Z,10.68
2022-11-22T00:34:33.202Z,10.74
2022-11-22T00:36:59.572Z,10.86
2022-11-22T00:39:25.958Z,10.78
2022-11-22T00:41:52.415Z,10.60
2022-11-22T00:44:18.766Z,10.97
2022-11-22T00:46:45.149Z,10.84
2022-11-22T00:49:11.551Z,10.74
2022-11-22T00:51:37.955Z,10.93
2022-11-22T00:54:04.549Z,10.93
2022-11-22T00:56:32.002Z,10.84
2022-11-22T00:58:58.441Z,10.77
2022-11-22T01:01:25.443Z,10.87
2022-11-22T01:03:51.850Z,10.80
2022-11-22T01:06:18.293Z,10.76
2022-11-22T01:08:44.737Z,10.84
2022-11-22T01:11:11.790Z,10.70
2022-11-22T01:13:38.262Z,10.86
2022-11-22T01:16:08.033Z,10.78
2022-11-22T01:18:35.197Z,10.63
2022-11-22T01:21:02.235Z,10.85
2022-11-22T01:23:28.593Z,10.63
2022-11-22T01:25:54.979Z,10.60
2022-11-22T01:28:21.327Z,10.45
2022-11-22T01:30:50.976Z,10.46
2022-11-22T01:33:17.351Z,10.37
2022-11-22T01:35:43.740Z,10.40
2022-11-22T01:38:10.422Z,10.01
2022-11-22T01:40:36.786Z,10.44
2022-11-22T01:43:04.262Z,10.61
2022-11-22T01:45:30.531Z,10.63
2022-11-22T01:48:18.803Z,10.49
2022-11-22T01:50:49.064Z,10.33
2022-11-22T01:53:35.896Z,10.33
2022-11-22T01:56:04.531Z,10.59
2022-11-22T01:58:33.352Z,10.45
2022-11-22T02:01:00.664Z,10.55
2022-11-22T02:03:29.484Z,10.17
2022-11-22T02:05:56.398Z,10.16
2022-11-22T02:08:25.378Z,10.43
2022-11-22T02:10:55.282Z,10.19
2022-11-22T02:13:23.260Z,10.13
2022-11-22T02:15:52.180Z,10.25
2022-11-22T02:18:18.897Z,10.19
2022-11-22T02:20:45.801Z,9.88
2022-11-22T02:23:31.537Z,10.20
2022-11-22T02:26:00.066Z,10.20
2022-11-22T02:28:32.138Z,9.82
2022-11-22T02:30:58.663Z,10.34
2022-11-22T02:33:25.048Z,10.09
2022-11-22T02:35:51.694Z,10.30
2022-11-22T02:38:22.429Z,10.20
2022-11-22T02:41:00.046Z,10.13
2022-11-22T02:43:41.600Z,10.23
2022-11-22T02:46:11.075Z,10.38
2022-11-22T02:48:41.961Z,10.01
2022-11-22T02:51:08.494Z,10.09
2022-11-22T02:53:34.953Z,10.16
2022-11-22T02:56:01.272Z,10.39
2022-11-22T02:58:27.582Z,10.15
2022-11-22T03:00:53.966Z,10.19
2022-11-22T03:03:20.408Z,10.25
2022-11-22T03:05:46.773Z,10.16
2022-11-22T03:08:13.095Z,10.26
2022-11-22T03:10:39.401Z,10.01
2022-11-22T03:13:05.755Z,10.01
2022-11-22T03:15:32.097Z,9.46
2022-11-22T03:18:03.171Z,10.24
2022-11-22T03:20:30.398Z,10.19
2022-11-22T03:22:57.026Z,10.23
2022-11-22T03:25:23.439Z,10.01
2022-11-22T03:27:49.765Z,9.93
2022-11-22T03:30:16.171Z,9.87
2022-11-22T03:32:42.505Z,10.18
2022-11-22T03:35:09.424Z,9.94
2022-11-22T03:37:36.170Z,10.21
2022-11-22T03:40:02.633Z,10.08
2022-11-22T03:42:28.980Z,10.19
2022-11-22T03:44:55.320Z,9.54
2022-11-22T03:47:21.650Z,10.03
2022-11-22T03:49:47.952Z,10.27
2022-11-22T03:52:14.256Z,10.21
2022-11-22T03:54:40.571Z,10.24
2022-11-22T03:57:06.976Z,10.12
2022-11-22T03:59:33.310Z,9.94
2022-11-22T04:01:59.704Z,10.13
2022-11-22T04:04:26.252Z,9.92
2022-11-22T04:06:52.630Z,10.01
2022-11-22T04:09:19.113Z,10.19
2022-11-22T04:11:45.515Z,10.02
2022-11-22T04:14:31.036Z,10.16
2022-11-22T04:16:57.827Z,9.95
2022-11-22T04:19:24.245Z,10.08
2022-11-22T04:21:50.676Z,10.08
2022-11-22T04:24:35.949Z,9.54
2022-11-22T04:27:02.388Z,10.08
2022-11-22T04:29:29.025Z,9.99
2022-11-22T04:32:14.257Z,9.96
2022-11-22T04:34:40.576Z,9.95
2022-11-22T04:37:07.110Z,9.89
2022-11-22T04:39:33.622Z,9.68
2022-11-22T04:42:18.913Z,9.92
2022-11-22T04:44:46.014Z,9.72
2022-11-22T04:47:54.011Z,9.72
2022-11-22T04:50:38.757Z,9.81
2022-11-22T04:53:05.066Z,9.73
2022-11-22T04:55:31.497Z,9.73
2022-11-22T04:58:00.311Z,9.67
2022-11-22T05:00:30.074Z,9.44
2022-11-22T05:02:57.059Z,9.30
2022-11-22T05:05:24.878Z,9.66
2022-11-22T05:07:51.322Z,9.75
2022-11-22T05:10:22.801Z,9.81
2022-11-22T05:12:52.427Z,9.79
2022-11-22T05:15:18.789Z,9.68
2022-11-22T05:17:45.138Z,9.86
2022-11-22T05:20:11.681Z,9.80
2022-11-22T05:22:56.502Z,9.52
2022-11-22T05:25:25.698Z,9.60
2022-11-22T05:27:55.528Z,9.87
2022-11-22T05:30:22.256Z,9.53
2022-11-22T05:32:48.594Z,9.56
2022-11-22T05:35:15.033Z,9.76
2022-11-22T05:37:41.353Z,9.63
2022-11-22T05:40:08.407Z,9.77
2022-11-22T05:42:35.546Z,9.89
2022-11-22T05:45:01.893Z,9.45
2022-11-22T05:47:28.212Z,9.82
2022-11-22T05:49:54.551Z,9.72
2022-11-22T05:52:20.852Z,9.66
2022-11-22T05:54:47.190Z,9.57
2022-11-22T05:57:13.541Z,9.64
2022-11-22T05:59:43.910Z,9.62
2022-11-22T06:02:10.912Z,9.67
2022-11-22T06:04:37.419Z,9.63
2022-11-22T06:07:09.647Z,9.50
2022-11-22T06:09:36.613Z,9.32
2022-11-22T06:12:03.065Z,9.61
2022-11-22T06:14:29.401Z,9.27
2022-11-22T06:16:55.701Z,9.32
2022-11-22T06:19:22.129Z,9.46
2022-11-22T06:21:48.582Z,9.47
2022-11-22T06:24:15.126Z,9.49
2022-11-22T06:26:41.454Z,9.55
2022-11-22T06:29:07.816Z,9.63
2022-11-22T06:31:41.447Z,9.68
2022-11-22T06:34:07.795Z,9.33
2022-11-22T06:36:34.979Z,9.31
2022-11-22T06:39:04.433Z,9.33
2022-11-22T06:41:36.142Z,9.61
2022-11-22T06:44:09.420Z,8.64
2022-11-22T06:46:36.903Z,9.35
2022-11-22T06:49:06.328Z,9.26
2022-11-22T06:51:33.193Z,9.55
2022-11-22T06:54:00.107Z,9.20
2022-11-22T06:56:37.405Z,9.52
2022-11-22T06:59:05.372Z,9.51
2022-11-22T07:01:32.855Z,9.38
2022-11-22T07:04:00.190Z,9.47
2022-11-22T07:06:35.057Z,9.42
2022-11-22T07:09:03.733Z,9.43
2022-11-22T07:11:32.033Z,9.47
2022-11-22T07:14:07.025Z,9.25
2022-11-22T07:16:35.811Z,9.17
2022-11-22T07:19:02.202Z,9.04
2022-11-22T07:21:28.533Z,9.12
2022-11-22T07:23:55.837Z,9.07
2022-11-22T07:26:25.232Z,9.21
2022-11-22T07:28:52.025Z,9.43
2022-11-22T07:31:18.771Z,9.32
2022-11-22T07:33:45.717Z,9.51
2022-11-22T07:36:17.584Z,9.23
2022-11-22T07:38:45.404Z,9.42
2022-11-22T07:41:11.770Z,9.46
2022-11-22T07:43:38.096Z,9.32
2022-11-22T07:46:07.822Z,9.29
2022-11-22T07:48:34.539Z,9.24
2022-11-22T07:51:07.638Z,9.15
2022-11-22T07:53:35.240Z,9.42
2022-11-22T07:56:05.246Z,9.64
2022-11-22T07:58:32.527Z,9.30
2022-11-22T08:01:03.831Z,9.52
2022-11-22T08:03:30.299Z,9.18
2022-11-22T08:06:04.595Z,9.48
2022-11-22T08:08:31.356Z,9.51
2022-11-22T08:10:57.682Z,9.15
2022-11-22T08:13:27.847Z,9.54
2022-11-22T08:15:55.547Z,9.04
2022-11-22T08:18:23.961Z,9.66
2022-11-22T08:20:50.266Z,9.86
2022-11-22T08:23:16.590Z,9.94
2022-11-22T08:25:42.960Z,9.65
2022-11-22T08:28:09.315Z,9.72
2022-11-22T08:30:35.659Z,10.20
2022-11-22T08:33:01.996Z,10.00
2022-11-22T08:35:28.983Z,10.17
2022-11-22T08:37:57.109Z,10.04
2022-11-22T08:40:23.451Z,10.10
2022-11-22T08:42:49.852Z,9.94
2022-11-22T08:45:16.816Z,9.89
2022-11-22T08:47:47.127Z,10.08
2022-11-22T08:50:13.495Z,9.99
2022-11-22T08:52:39.812Z,10.04
2022-11-22T08:55:06.742Z,10.06
2022-11-22T08:57:33.069Z,10.11
2022-11-22T08:59:59.399Z,10.04
2022-11-22T09:02:26.080Z,10.22
2022-11-22T09:04:52.855Z,10.15
2022-11-22T09:10:07.970Z,9.92
2022-11-22T09:12:34.485Z,9.86
2022-11-22T09:15:00.799Z,10.29
2022-11-22T09:17:27.118Z,10.06
2022-11-22T09:19:53.452Z,10.48
2022-11-22T09:22:22.804Z,10.18
2022-11-22T09:24:51.764Z,10.47
2022-11-22T09:27:18.080Z,10.42
2022-11-22T09:29:44.690Z,10.54
2022-11-22T09:32:11.295Z,10.85
2022-11-22T09:34:38.022Z,10.52
2022-11-22T09:37:04.943Z,10.50
2022-11-22T09:39:31.517Z,10.61
2022-11-22T09:42:22.894Z,10.93
2022-11-22T09:45:16.985Z,11.03
2022-11-22T09:47:55.297Z,11.10
2022-11-22T09:50:27.663Z,11.18
2022-11-22T09:53:00.645Z,11.26
2022-11-22T09:55:38.027Z,11.15
2022-11-22T09:58:30.732Z,11.05
2022-11-22T10:01:18.223Z,11.48
2022-11-22T10:03:50.773Z,11.73
2022-11-22T10:06:23.817Z,11.60
2022-11-22T10:09:03.014Z,11.88
2022-11-22T10:11:36.841Z,11.99
2022-11-22T10:14:14.694Z,11.63
2022-11-22T10:16:55.630Z,12.04
2022-11-22T10:19:50.417Z,11.94
2022-11-22T10:22:16.982Z,11.99
2022-11-22T10:24:43.779Z,11.95
2022-11-22T10:27:16.183Z,11.99
2022-11-22T10:29:45.332Z,12.12
2022-11-22T10:32:20.316Z,12.03
2022-11-22T10:35:04.953Z,11.89
2022-11-22T10:37:54.299Z,12.14
2022-11-22T10:40:20.846Z,12.11
2022-11-22T10:43:11.944Z,11.96
2022-11-22T10:45:49.759Z,12.28
2022-11-22T10:48:49.176Z,12.51
2022-11-22T10:51:23.528Z,12.60
2022-11-22T10:53:49.756Z,12.55
2022-11-22T10:56:34.848Z,12.45
2022-11-22T10:59:15.237Z,12.11
2022-11-22T11:01:58.642Z,12.07
2022-11-22T11:04:31.113Z,12.01
2022-11-22T11:07:16.202Z,12.21
2022-11-22T11:12:45.136Z,12.28
2022-11-22T11:15:18.161Z,12.03
2022-11-22T11:17:50.021Z,12.08
2022-11-22T11:20:24.542Z,12.13
2022-11-22T11:23:13.617Z,12.18
2022-11-22T11:25:43.311Z,12.26
2022-11-22T11:28:20.922Z,12.28
2022-11-22T11:31:01.762Z,11.94
2022-11-22T11:33:34.845Z,12.05
2022-11-22T11:36:17.317Z,11.91
2022-11-22T11:38:43.628Z,11.96
2022-11-22T11:41:29.061Z,11.79
2022-11-22T11:44:04.075Z,11.88
2022-11-22T11:46:36.573Z,11.96
2022-11-22T11:49:10.667Z,12.18
2022-11-22T11:51:42.809Z,12.09
2022-11-22T11:54:20.490Z,12.19
2022-11-22T11:56:59.281Z,12.18
2022-11-22T11:59:37.742Z,11.96
2022-11-22T12:02:43.153Z,12.21
2022-11-22T12:05:12.602Z,12.28
2022-11-22T12:07:43.648Z,12.13
2022-11-22T12:10:36.205Z,11.88
2022-11-22T12:13:21.418Z,12.16
2022-11-22T12:16:09.273Z,11.92
2022-11-22T12:18:59.540Z,12.28
2022-11-22T12:21:25.814Z,12.24
2022-11-22T12:24:26.603Z,12.09
2022-11-22T12:26:46.965Z,12.18
2022-11-22T12:29:15.386Z,12.33
2022-11-22T12:32:04.710Z,12.25
2022-11-22T12:34:57.011Z,12.33
2022-11-22T12:37:44.069Z,12.07
2022-11-22T12:40:28.423Z,12.34
2022-11-22T12:43:03.645Z,12.25
2022-11-22T12:45:35.699Z,12.24
2022-11-22T12:48:07.131Z,12.23
2022-11-22T12:50:41.403Z,12.16
2022-11-22T12:53:12.269Z,12.17
2022-11-22T12:55:58.205Z,12.35
2022-11-22T12:58:32.256Z,12.36
2022-11-22T13:01:24.569Z,12.24
2022-11-22T13:03:57.921Z,12.13
2022-11-22T13:06:28.064Z,12.15
2022-11-22T13:09:06.941Z,12.31
2022-11-22T13:11:39.508Z,12.28
2022-11-22T13:14:30.589Z,12.32
2022-11-22T13:16:58.542Z,12.08
2022-11-22T13:19:26.989Z,11.87
2022-11-22T13:22:15.220Z,12.21
2022-11-22T13:24:53.886Z,12.39
2022-11-22T13:27:32.396Z,11.95
2022-11-22T13:30:01.533Z,12.33
2022-11-22T13:32:35.931Z,11.76
2022-11-22T13:35:04.704Z,12.17
2022-11-22T13:37:36.533Z,12.19
2022-11-22T13:40:21.470Z,12.30
2022-11-22T13:42:47.841Z,12.04
2022-11-22T13:45:24.100Z,11.95
2022-11-22T13:47:51.129Z,12.24
2022-11-22T13:50:36.292Z,12.47
2022-11-22T13:53:23.605Z,12.34
2022-11-22T13:55:50.536Z,12.29
2022-11-22T13:58:26.483Z,12.39
2022-11-22T14:00:55.791Z,11.75
2022-11-22T14:03:34.867Z,12.45
2022-11-22T14:06:16.030Z,12.28
2022-11-22T14:08:43.833Z,12.19
2022-11-22T14:11:26.584Z,12.33
2022-11-22T14:14:03.359Z,12.31
2022-11-22T14:16:43.270Z,12.39
2022-11-22T14:19:45.341Z,12.44
2022-11-22T14:22:33.325Z,12.47
2022-11-22T14:25:17.497Z,12.39
2022-11-22T14:27:56.470Z,12.48
2022-11-22T14:30:40.435Z,11.84
2022-11-22T14:33:17.063Z,12.23
2022-11-22T14:36:09.431Z,12.34
2022-11-22T14:38:45.271Z,12.29
2022-11-22T14:41:39.670Z,12.43
2022-11-22T14:44:17.934Z,12.34
2022-11-22T14:47:11.825Z,12.28
2022-11-22T14:49:49.563Z,12.09
2022-11-22T14:52:24.255Z,12.45
2022-11-22T14:54:56.237Z,11.74
2022-11-22T14:57:26.238Z,12.51
2022-11-22T15:00:08.948Z,12.33
2022-11-22T15:02:53.086Z,12.30
2022-11-22T15:09:12.946Z,12.24
2022-11-22T15:09:15.782Z,12.25
2022-11-22T15:12:24.449Z,12.34
2022-11-22T15:59:41.335Z,12.01
2022-11-22T16:02:16.094Z,11.91
2022-11-22T16:06:04.368Z,11.71
2022-11-22T16:07:47.276Z,11.71
2022-11-22T16:10:24.370Z,11.69
2022-11-22T16:12:52.413Z,11.58
2022-11-22T16:15:36.116Z,11.90
2022-11-22T16:18:16.668Z,11.83
2022-11-22T16:20:58.975Z,11.95
2022-11-22T16:23:27.047Z,11.70
2022-11-22T16:25:57.120Z,11.57
2022-11-22T16:28:30.808Z,11.73
2022-11-22T16:31:00.248Z,11.89
2022-11-22T16:33:27.138Z,11.80
2022-11-22T16:35:55.013Z,11.69
2022-11-22T16:38:22.389Z,11.45
2022-11-22T16:40:48.994Z,11.77
2022-11-22T16:43:19.483Z,11.77
2022-11-22T16:45:45.870Z,11.54
2022-11-22T16:48:31.909Z,11.82
2022-11-22T16:51:04.790Z,11.80
2022-11-22T16:53:42.531Z,11.41
2022-11-22T16:56:24.086Z,11.65
2022-11-22T16:58:52.011Z,11.67
2022-11-22T17:01:22.227Z,11.62
2022-11-22T17:03:51.833Z,11.60
2022-11-22T17:06:21.336Z,12.00
2022-11-22T17:08:49.602Z,11.67
2022-11-22T17:11:24.021Z,11.95
2022-11-22T17:13:50.738Z,11.88
2022-11-22T17:16:19.906Z,11.63
2022-11-22T17:18:47.998Z,11.84
2022-11-22T17:21:31.307Z,12.04
2022-11-22T17:24:02.798Z,11.97
2022-11-22T17:26:29.496Z,12.04
2022-11-22T17:28:56.236Z,12.03
2022-11-22T17:31:23.175Z,11.93
2022-11-22T17:33:51.340Z,11.72
2022-11-22T17:36:34.798Z,11.95
2022-11-22T17:39:06.584Z,11.85
2022-11-22T17:41:33.660Z,11.93
2022-11-22T17:44:01.178Z,11.27
2022-11-22T17:46:29.458Z,11.94
2022-11-22T17:48:58.726Z,11.55
2022-11-22T17:51:26.766Z,11.81
2022-11-22T17:53:53.831Z,11.51
2022-11-22T17:56:20.772Z,11.70
2022-11-22T17:58:47.575Z,11.55
2022-11-22T18:01:16.245Z,11.84
2022-11-22T18:03:43.080Z,11.63
2022-11-22T18:06:11.667Z,11.92
2022-11-22T18:08:41.384Z,11.55
2022-11-22T18:11:11.757Z,11.96
2022-11-22T18:13:40.027Z,11.63
2022-11-22T18:16:11.951Z,10.92
2022-11-22T18:18:57.533Z,11.78
2022-11-22T18:21:26.032Z,11.36
2022-11-22T18:23:52.748Z,11.98
2022-11-22T18:31:53.465Z,11.76
2022-11-22T18:34:21.048Z,11.40
2022-11-22T18:36:57.677Z,11.97
2022-11-22T18:39:30.904Z,10.94
2022-11-22T18:41:57.664Z,12.02
2022-11-22T18:44:24.018Z,11.23
2022-11-22T18:46:50.614Z,11.76
2022-11-22T18:49:17.124Z,11.57
2022-11-22T18:51:43.719Z,11.93
2022-11-22T18:54:10.617Z,11.65
2022-11-22T18:56:39.857Z,11.51
2022-11-22T18:59:07.897Z,10.89
2022-11-22T19:01:34.827Z,10.92
2022-11-22T19:04:03.088Z,11.24
2022-11-22T19:06:30.427Z,11.98
2022-11-22T19:08:57.257Z,10.91
2022-11-22T19:11:23.640Z,12.06
2022-11-22T19:13:50.103Z,10.75
2022-11-22T19:16:22.018Z,12.07
2022-11-22T19:18:51.867Z,12.06
2022-11-22T19:21:21.218Z,11.80
2022-11-22T19:23:49.539Z,11.61
2022-11-22T19:26:20.513Z,11.46
2022-11-22T19:28:48.557Z,11.92
2022-11-22T19:31:19.998Z,11.26
2022-11-22T19:33:46.841Z,12.22
2022-11-22T19:36:18.186Z,11.10
2022-11-22T19:38:45.529Z,12.23
2022-11-22T19:41:14.062Z,11.00
2022-11-22T19:43:40.623Z,12.12
2022-11-22T19:46:08.641Z,11.58
2022-11-22T19:48:40.063Z,11.89
2022-11-22T19:51:16.513Z,11.52
2022-11-22T19:53:43.209Z,11.85
2022-11-22T19:56:14.957Z,11.47
2022-11-22T19:58:42.656Z,11.35
2022-11-22T20:01:21.764Z,12.18
2022-11-22T20:03:52.741Z,11.83
2022-11-22T20:06:19.515Z,11.76
2022-11-22T20:08:46.178Z,11.27
2022-11-22T20:11:14.624Z,11.86
2022-11-22T20:13:43.397Z,12.41
2022-11-22T20:16:27.533Z,11.46
2022-11-22T20:18:54.654Z,12.21
2022-11-22T20:21:22.488Z,12.31
2022-11-22T20:23:52.377Z,12.13
2022-11-22T20:26:36.951Z,12.16
2022-11-22T20:29:07.264Z,12.05
2022-11-22T20:31:35.949Z,12.20
2022-11-22T20:34:02.510Z,11.91
2022-11-22T20:36:31.381Z,11.79
2022-11-22T20:38:58.843Z,11.11
2022-11-22T20:41:28.152Z,12.22
2022-11-22T20:43:56.621Z,11.40
2022-11-22T20:46:25.592Z,10.97
2022-11-22T20:48:53.157Z,12.09
2022-11-22T20:51:22.940Z,12.12
2022-11-22T20:53:49.804Z,12.04
2022-11-22T20:56:17.040Z,12.17
2022-11-22T20:58:44.135Z,10.97
2022-11-22T21:01:16.384Z,11.03
2022-11-22T21:03:42.981Z,11.49
2022-11-22T21:06:11.414Z,10.83
2022-11-22T21:08:38.218Z,12.32
2022-11-22T21:11:07.046Z,11.55
2022-11-22T21:13:34.307Z,12.06
2022-11-22T21:16:20.654Z,11.40
2022-11-22T21:18:51.408Z,12.17
2022-11-22T21:21:22.540Z,11.29
2022-11-22T21:23:54.426Z,12.09
2022-11-22T21:26:22.182Z,11.06
2022-11-22T21:28:48.913Z,11.05
2022-11-22T21:31:15.628Z,10.81
2022-11-22T21:33:42.611Z,11.57
2022-11-22T21:36:09.568Z,11.21
2022-11-22T21:38:38.225Z,11.03
2022-11-22T21:41:37.745Z,11.46
2022-11-22T21:43:55.697Z,11.07
2022-11-22T21:46:25.972Z,11.32
2022-11-22T21:48:52.481Z,10.89
2022-11-22T21:51:18.887Z,11.80
2022-11-22T21:53:45.418Z,12.07
2022-11-22T21:56:11.835Z,11.12
2022-11-22T21:58:38.202Z,10.64
2022-11-22T22:01:13.591Z,11.58
2022-11-22T22:03:40.599Z,11.59
2022-11-22T22:06:07.544Z,11.22
2022-11-22T22:08:34.239Z,11.95
2022-11-22T22:11:02.418Z,11.64
2022-11-22T22:13:30.651Z,11.43
2022-11-22T22:15:58.903Z,12.10
2022-11-22T22:18:33.549Z,11.99
2022-11-22T22:21:02.672Z,12.01
2022-11-22T22:23:29.209Z,12.06
2022-11-22T22:26:04.343Z,11.99
2022-11-22T22:28:33.819Z,12.36
2022-11-22T22:31:12.262Z,12.18
2022-11-22T22:33:40.856Z,12.33
2022-11-22T22:36:09.485Z,11.93
2022-11-22T22:38:36.156Z,11.55
2022-11-22T22:41:03.999Z,12.21
2022-11-22T22:43:35.681Z,12.11
2022-11-22T22:46:13.748Z,12.24
2022-11-22T22:48:41.137Z,11.66
2022-11-22T22:51:19.570Z,11.91
2022-11-22T22:53:47.185Z,11.46
2022-11-22T22:56:15.214Z,12.19
2022-11-22T22:58:41.969Z,12.28
2022-11-22T23:01:12.725Z,11.53
2022-11-22T23:03:39.511Z,11.23
2022-11-22T23:06:11.323Z,11.22
2022-11-22T23:08:39.314Z,12.33
2022-11-22T23:11:08.332Z,11.69
2022-11-22T23:13:36.910Z,12.44
2022-11-22T23:16:08.749Z,12.04
2022-11-22T23:18:38.782Z,12.34
2022-11-22T23:21:07.301Z,11.82
2022-11-22T23:23:33.804Z,11.51
2022-11-22T23:26:09.618Z,12.22
2022-11-22T23:28:36.463Z,11.11
2022-11-22T23:31:11.635Z,12.36
2022-11-22T23:33:40.998Z,12.10
2022-11-22T23:36:10.397Z,12.25
2022-11-22T23:38:37.513Z,12.64
2022-11-22T23:41:04.289Z,12.37
2022-11-22T23:43:30.990Z,12.01
2022-11-22T23:45:58.749Z,11.99
2022-11-22T23:48:25.961Z,11.95
2022-11-22T23:50:52.394Z,12.37
2022-11-22T23:53:19.065Z,12.41
2022-11-22T23:55:45.480Z,11.78
2022-11-22T23:58:11.887Z,11.79
